London Mills, Illinois
Current Conditions -  °F | °C
As of 6:35 AM on Monday 20 Oct 2014 (Local Time) from KGBG Reporting Station
Clear Clear  
Wind Chill: 43°   Ceiling: Unl
Heat Index: 46°   Visibility: 10mi
Dew Point: 44°   Wind: 7mph
Humidity: 92%   Direction: 270°W
Pressure: 29.89"   Gusts: NA
Location:  40.71°N, 90.27°W
Report Text: KGBG 201135Z AUTO 27006KT 10SM CLR 08/07 A2989 RMK AO2 T00800067
Loading
Personal Weather Stations






























Interactive Weather Map
Tropical Storm Tracking
New forecast layout! Learn more

10-Day Weather Forecast

Advertisements
Track Severe Weather on mobile